Time;durP1;ratioP1;P1;durP2;ratioP2;P2;SDS_P1;SDS_P2;PMS_P1;PMS_P2;Temp;Humidity;BMP_temperature;BMP_pressure;BME280_temperature;BME280_humidity;BME280_pressure;Samples;Min_cycle;Max_cycle;Signal;HPM_P1;HPM_P2
2023/04/18 00:01:39;;;;;;;;;69.50;54.25;;;;;10.52;68.95;101779.97;5053915;28;45327;-75
2023/04/18 00:04:05;;;;;;;;;69.00;52.25;;;;;10.71;68.99;101813.97;5057088;28;45394;-74
2023/04/18 00:06:31;;;;;;;;;63.00;48.50;;;;;11.02;69.25;101863.84;5057610;28;45312;-72
2023/04/18 00:08:56;;;;;;;;;69.75;53.75;;;;;10.69;69.49;101834.50;5038427;28;46674;-74
2023/04/18 00:11:22;;;;;;;;;71.50;56.00;;;;;10.94;69.12;101868.88;5056652;28;56667;-74
2023/04/18 00:13:47;;;;;;;;;69.00;54.00;;;;;10.87;69.41;101880.97;5068984;27;45509;-77
2023/04/18 00:16:13;;;;;;;;;67.25;53.50;;;;;10.81;69.85;101861.03;5038932;28;45274;-75
2023/04/18 00:18:39;;;;;;;;;69.50;55.50;;;;;10.77;69.84;101862.19;5067417;28;46320;-76
2023/04/18 00:21:08;;;;;;;;;64.25;49.75;;;;;10.71;70.36;101873.31;5076878;28;45470;-75
2023/04/18 00:23:34;;;;;;;;;69.00;54.00;;;;;10.48;70.25;101829.88;5077588;28;45535;-74
2023/04/18 00:26:00;;;;;;;;;71.00;55.50;;;;;10.63;70.39;101881.06;5058328;28;45315;-74
2023/04/18 00:28:26;;;;;;;;;70.50;58.75;;;;;9.55;71.20;101705.84;5079400;27;46406;-77
2023/04/18 00:30:51;;;;;;;;;72.75;58.00;;;;;10.58;70.93;101870.75;5080711;27;45290;-73
2023/04/18 00:33:16;;;;;;;;;71.00;56.00;;;;;10.48;71.03;101856.47;5080525;27;45394;-75
2023/04/18 00:35:42;;;;;;;;;71.00;55.25;;;;;10.12;71.19;101812.19;5081029;28;45322;-74
2023/04/18 00:38:07;;;;;;;;;73.25;61.00;;;;;10.25;71.50;101839.59;5079912;28;52232;-74
2023/04/18 00:40:33;;;;;;;;;61.50;46.75;;;;;9.80;71.70;101785.34;5080503;28;45347;-75
2023/04/18 00:42:59;;;;;;;;;76.00;62.25;;;;;10.28;72.07;101862.44;5079139;27;45568;-75
2023/04/18 00:45:24;;;;;;;;;73.00;58.25;;;;;10.26;72.21;101864.34;5080184;27;45462;-76
2023/04/18 00:47:49;;;;;;;;;71.75;56.75;;;;;9.92;72.46;101804.88;5079965;28;45684;-75
2023/04/18 00:50:15;;;;;;;;;71.75;54.50;;;;;9.98;72.51;101815.88;5079805;28;45293;-75
2023/04/18 00:52:42;;;;;;;;;64.50;51.00;;;;;9.98;72.21;101815.03;5080046;28;45342;-75
2023/04/18 00:55:08;;;;;;;;;68.75;54.00;;;;;9.89;72.64;101797.13;5079284;27;45316;-76
2023/04/18 00:57:34;;;;;;;;;73.00;57.00;;;;;9.76;72.87;101784.75;5061944;28;48085;-75
2023/04/18 01:00:03;;;;;;;;;72.50;56.75;;;;;10.23;72.85;101843.31;5081264;27;45541;-72
2023/04/18 01:02:30;;;;;;;;;71.50;56.00;;;;;9.94;71.75;101779.88;5079903;28;45447;-72
2023/04/18 01:04:57;;;;;;;;;69.50;53.75;;;;;9.94;72.01;101787.84;5080273;27;45679;-75
2023/04/18 01:07:24;;;;;;;;;73.00;55.25;;;;;9.97;71.97;101792.94;5061868;28;47499;-74
2023/04/18 01:09:49;;;;;;;;;72.00;56.00;;;;;10.26;71.49;101819.19;5061490;28;46031;-72
2023/04/18 01:12:15;;;;;;;;;70.25;54.25;;;;;10.17;71.24;101783.47;5079751;27;45462;-74
2023/04/18 01:14:44;;;;;;;;;70.50;56.75;;;;;10.50;70.98;101848.38;5053594;27;45318;-75
2023/04/18 01:17:09;;;;;;;;;73.00;57.25;;;;;10.50;71.06;101827.94;5059432;28;46500;-74
2023/04/18 01:19:38;;;;;;;;;65.25;54.00;;;;;9.78;71.01;101697.00;5073715;27;45433;-75
2023/04/18 01:22:04;;;;;;;;;73.75;56.75;;;;;10.22;71.19;101796.47;5081269;28;45572;-74
2023/04/18 01:24:30;;;;;;;;;72.00;58.00;;;;;10.49;71.25;101836.88;5081934;28;45545;-75
2023/04/18 01:26:57;;;;;;;;;73.25;56.00;;;;;10.44;71.69;101815.13;5080996;28;45825;-75
2023/04/18 01:29:23;;;;;;;;;77.50;59.75;;;;;9.75;71.47;101686.59;5078890;27;45739;-74
2023/04/18 01:31:48;;;;;;;;;71.25;56.25;;;;;10.49;71.75;101836.03;5061246;28;45337;-73
2023/04/18 01:34:14;;;;;;;;;73.00;56.75;;;;;9.57;71.73;101669.41;5079957;28;45210;-74
2023/04/18 01:36:39;;;;;;;;;76.50;61.50;;;;;9.56;71.95;101680.97;5079497;27;46594;-75
2023/04/18 01:39:05;;;;;;;;;72.50;57.50;;;;;10.13;72.19;101786.47;5060116;28;45885;-75
2023/04/18 01:41:31;;;;;;;;;75.25;58.00;;;;;10.33;72.76;101820.41;5061990;28;45343;-76
2023/04/18 01:43:57;;;;;;;;;74.25;56.00;;;;;10.27;72.15;101815.56;5069085;27;45554;-75
2023/04/18 01:46:22;;;;;;;;;74.50;58.25;;;;;9.29;72.05;101650.22;5049760;28;47584;-76
2023/04/18 01:48:48;;;;;;;;;77.75;64.25;;;;;10.01;72.43;101778.47;5079337;27;45420;-75
2023/04/18 01:51:13;;;;;;;;;75.25;60.25;;;;;9.79;72.75;101751.78;5079959;28;45457;-74
2023/04/18 01:53:38;;;;;;;;;71.75;56.00;;;;;9.71;72.72;101754.19;5079632;28;45243;-74
2023/04/18 01:56:04;;;;;;;;;74.50;59.75;;;;;9.14;73.18;101660.16;5078958;27;45579;-74
2023/04/18 01:58:29;;;;;;;;;80.75;67.00;;;;;10.13;73.08;101821.88;5071934;27;45446;-75
2023/04/18 02:00:58;;;;;;;;;81.25;67.25;;;;;10.15;73.19;101827.06;5059169;28;45468;-73
2023/04/18 02:03:23;;;;;;;;;73.75;61.25;;;;;10.07;72.80;101793.94;5059726;28;45278;-74
2023/04/18 02:05:49;;;;;;;;;78.00;61.25;;;;;9.99;72.94;101793.66;5058579;28;47121;-73
2023/04/18 02:08:14;;;;;;;;;66.50;53.75;;;;;10.11;73.19;101817.63;5042378;28;45329;-75
2023/04/18 02:10:40;;;;;;;;;75.25;57.00;;;;;10.10;73.14;101814.13;5061062;28;45571;-74
2023/04/18 02:13:06;;;;;;;;;79.00;68.50;;;;;9.68;73.27;101760.56;5075624;27;45341;-74
2023/04/18 02:15:31;;;;;;;;;79.75;64.50;;;;;10.04;73.95;101817.25;5040686;28;47422;-75
2023/04/18 02:17:58;;;;;;;;;76.25;59.25;;;;;9.97;73.85;101816.00;5058811;28;45539;-74
2023/04/18 02:20:25;;;;;;;;;72.50;55.75;;;;;9.94;73.70;101803.78;5040697;28;45421;-74
2023/04/18 02:22:50;;;;;;;;;81.00;69.00;;;;;9.97;73.42;101811.53;5057176;28;45489;-74
2023/04/18 02:25:17;;;;;;;;;73.00;58.75;;;;;9.35;73.88;101700.19;5059291;28;45733;-74
2023/04/18 02:27:43;;;;;;;;;79.50;65.75;;;;;9.98;73.44;101809.72;5058691;27;45349;-78
2023/04/18 02:30:09;;;;;;;;;76.00;62.50;;;;;9.95;73.87;101805.47;5074035;27;45272;-74
2023/04/18 02:32:34;;;;;;;;;77.25;65.75;;;;;9.94;73.40;101805.59;5060681;28;45363;-74
2023/04/18 02:35:00;;;;;;;;;76.75;58.75;;;;;9.19;73.28;101712.88;5078647;28;46421;-73
2023/04/18 02:37:26;;;;;;;;;76.00;59.25;;;;;9.81;73.66;101803.03;5078536;27;45317;-73
2023/04/18 02:39:51;;;;;;;;;76.25;59.50;;;;;8.98;73.80;101664.88;5078612;28;45359;-73
2023/04/18 02:42:16;;;;;;;;;79.00;68.75;;;;;9.83;73.57;101803.75;5077301;28;45241;-73
2023/04/18 02:44:41;;;;;;;;;79.75;65.50;;;;;9.77;73.40;101801.53;5059450;28;47500;-73
2023/04/18 02:47:07;;;;;;;;;76.25;57.25;;;;;9.67;73.53;101784.59;5078047;28;52501;-74
2023/04/18 02:49:32;;;;;;;;;79.50;66.00;;;;;9.25;73.94;101723.06;5078001;28;54670;-74
2023/04/18 02:51:57;;;;;;;;;78.50;64.50;;;;;9.61;73.91;101785.00;5078289;28;45373;-74
2023/04/18 02:54:23;;;;;;;;;78.25;62.00;;;;;9.42;73.67;101743.06;5077576;27;45658;-73
2023/04/18 02:56:52;;;;;;;;;71.50;55.50;;;;;9.76;73.63;101790.06;5078221;27;45470;-74
2023/04/18 02:59:18;;;;;;;;;77.00;66.00;;;;;9.80;73.19;101777.41;5060055;28;45576;-73
2023/04/18 03:01:44;;;;;;;;;68.75;56.00;;;;;9.57;73.40;101764.97;5060336;28;45272;-75
2023/04/18 03:04:10;;;;;;;;;79.00;63.25;;;;;9.64;73.46;101772.38;5078079;27;45283;-74
2023/04/18 03:06:35;;;;;;;;;77.50;58.75;;;;;9.41;72.58;101728.97;5078105;28;45322;-75
2023/04/18 03:09:02;;;;;;;;;76.50;63.25;;;;;9.53;72.82;101735.16;5060699;28;45383;-75
2023/04/18 03:11:27;;;;;;;;;73.75;60.00;;;;;9.70;72.63;101769.28;5079315;28;45525;-75
2023/04/18 03:13:53;;;;;;;;;81.75;64.25;;;;;9.42;72.42;101728.00;5076376;27;45635;-74
2023/04/18 03:16:19;;;;;;;;;75.25;59.00;;;;;9.43;72.70;101728.84;5076510;28;46021;-75
2023/04/18 03:18:44;;;;;;;;;75.75;60.75;;;;;9.02;72.28;101639.00;5077967;27;45404;-74
2023/04/18 03:21:10;;;;;;;;;79.00;66.25;;;;;9.41;72.53;101734.25;5059723;28;45558;-73
2023/04/18 03:23:36;;;;;;;;;69.75;53.00;;;;;9.58;72.59;101750.72;5077393;28;45609;-75
2023/04/18 03:26:01;;;;;;;;;75.75;60.25;;;;;9.70;72.50;101790.50;5078081;28;45340;-74
2023/04/18 03:28:26;;;;;;;;;80.50;66.50;;;;;9.38;72.38;101736.28;5077192;27;45430;-73
2023/04/18 03:30:52;;;;;;;;;76.00;59.50;;;;;9.69;72.64;101782.66;5059978;28;45603;-75
2023/04/18 03:33:17;;;;;;;;;73.25;57.75;;;;;9.42;72.86;101743.06;5077774;27;45884;-74
2023/04/18 03:35:42;;;;;;;;;77.00;63.25;;;;;9.42;72.63;101749.22;5077567;28;45517;-75
2023/04/18 03:38:08;;;;;;;;;79.25;67.75;;;;;9.66;72.73;101793.53;5076878;28;45761;-74
2023/04/18 03:40:33;;;;;;;;;72.00;54.00;;;;;9.58;72.83;101764.00;5077577;28;45481;-76
2023/04/18 03:42:58;;;;;;;;;75.25;58.75;;;;;8.91;72.37;101641.56;5077531;28;46570;-73
2023/04/18 03:45:24;;;;;;;;;74.50;61.25;;;;;9.77;72.79;101785.59;5077509;27;46331;-74
2023/04/18 03:47:49;;;;;;;;;79.25;63.50;;;;;9.75;72.26;101787.50;5077592;28;45246;-73
2023/04/18 03:50:15;;;;;;;;;76.00;62.75;;;;;9.74;72.63;101783.16;5077719;28;45399;-74
2023/04/18 03:52:40;;;;;;;;;74.75;56.75;;;;;9.63;72.62;101775.16;5076933;28;46578;-73
2023/04/18 03:55:06;;;;;;;;;73.00;58.50;;;;;9.69;72.66;101772.88;5075879;27;45186;-75
2023/04/18 03:57:31;;;;;;;;;72.50;57.25;;;;;9.62;73.00;101787.59;5077547;28;45325;-74
2023/04/18 03:59:57;;;;;;;;;79.00;62.75;;;;;9.17;73.54;101704.19;5077297;27;45927;-73
2023/04/18 04:02:22;;;;;;;;;76.25;62.25;;;;;8.99;73.73;101700.19;5076216;27;45488;-74
2023/04/18 04:04:47;;;;;;;;;80.25;64.00;;;;;9.41;73.95;101770.53;5058936;28;45349;-74
2023/04/18 04:07:13;;;;;;;;;82.00;72.75;;;;;9.03;74.12;101709.66;5077199;28;45368;-73
2023/04/18 04:09:38;;;;;;;;;72.25;57.00;;;;;9.18;73.84;101718.28;5075395;27;45582;-75
2023/04/18 04:12:04;;;;;;;;;74.25;60.50;;;;;9.52;73.78;101769.78;5075981;27;46514;-74
2023/04/18 04:14:29;;;;;;;;;78.00;60.75;;;;;9.20;74.16;101717.22;5077233;28;45391;-74
2023/04/18 04:16:55;;;;;;;;;67.25;55.75;;;;;9.31;74.17;101750.94;5077321;28;45505;-75
2023/04/18 04:19:20;;;;;;;;;77.50;64.00;;;;;9.21;74.62;101742.81;5077165;28;45448;-74
2023/04/18 04:21:45;;;;;;;;;77.25;65.75;;;;;9.19;74.94;101746.53;5076866;28;46344;-73
2023/04/18 04:24:12;;;;;;;;;68.00;55.00;;;;;9.32;74.87;101760.59;5076409;28;45368;-73
2023/04/18 04:26:37;;;;;;;;;76.50;64.25;;;;;9.30;75.14;101770.50;5076903;28;45434;-74
2023/04/18 04:29:03;;;;;;;;;79.75;63.00;;;;;9.15;75.03;101738.78;5077264;28;45439;-75
2023/04/18 04:31:29;;;;;;;;;80.00;63.50;;;;;8.89;75.55;101723.06;5075219;27;48929;-73
2023/04/18 04:33:54;;;;;;;;;77.75;68.00;;;;;9.23;75.97;101769.25;5058255;28;45346;-74
2023/04/18 04:36:21;;;;;;;;;75.50;60.75;;;;;8.60;75.63;101662.31;5054141;28;45316;-75
2023/04/18 04:38:47;;;;;;;;;80.25;65.00;;;;;9.22;76.10;101762.25;5056457;28;45513;-73
2023/04/18 04:41:12;;;;;;;;;78.75;62.00;;;;;9.20;75.84;101769.44;5039872;28;47442;-74
2023/04/18 04:43:39;;;;;;;;;80.00;68.75;;;;;9.26;76.01;101775.19;5065498;28;45493;-75
2023/04/18 04:46:06;;;;;;;;;73.50;56.25;;;;;9.16;76.17;101760.84;5076594;28;45430;-74
2023/04/18 04:48:32;;;;;;;;;80.00;63.25;;;;;9.18;76.36;101774.84;5058601;28;45580;-75
2023/04/18 04:50:58;;;;;;;;;82.75;69.25;;;;;9.17;76.76;101756.41;5058364;28;48682;-75
2023/04/18 04:53:26;;;;;;;;;80.50;65.50;;;;;9.11;77.05;101763.00;5076098;27;45653;-75
2023/04/18 04:55:52;;;;;;;;;76.25;60.25;;;;;9.13;76.98;101769.03;5058231;28;45481;-74
2023/04/18 04:58:17;;;;;;;;;81.50;68.00;;;;;9.19;76.98;101765.94;5076266;28;45422;-74
2023/04/18 05:00:43;;;;;;;;;77.50;61.75;;;;;8.90;76.65;101706.19;5057650;27;47468;-74
2023/04/18 05:03:09;;;;;;;;;76.50;63.00;;;;;8.97;77.47;101741.91;5058128;28;45344;-75
2023/04/18 05:05:35;;;;;;;;;80.50;69.25;;;;;8.29;77.57;101638.91;5077044;27;45564;-75
2023/04/18 05:08:00;;;;;;;;;76.75;60.25;;;;;9.13;77.28;101758.44;5076149;27;45664;-73
2023/04/18 05:10:26;;;;;;;;;81.50;66.50;;;;;8.19;77.29;101613.06;5074978;27;46832;-74
2023/04/18 05:12:51;;;;;;;;;81.00;65.25;;;;;8.94;77.13;101737.66;5061390;27;45564;-75
2023/04/18 05:15:17;;;;;;;;;83.50;70.50;;;;;9.11;76.88;101760.34;5060880;27;52593;-73
2023/04/18 05:17:42;;;;;;;;;78.25;64.25;;;;;9.12;77.42;101762.03;5059379;28;45492;-74
2023/04/18 05:20:08;;;;;;;;;78.50;63.75;;;;;8.69;77.18;101705.91;5059715;28;45522;-74
2023/04/18 05:22:34;;;;;;;;;76.75;62.50;;;;;8.47;77.52;101658.88;5058920;28;45305;-73
2023/04/18 05:25:00;;;;;;;;;81.50;64.25;;;;;9.18;77.41;101766.91;5059096;28;45278;-76
2023/04/18 05:27:26;;;;;;;;;79.00;62.50;;;;;9.20;77.07;101764.13;5058064;28;45602;-73
2023/04/18 05:29:51;;;;;;;;;72.25;57.25;;;;;8.86;77.42;101716.16;5059386;28;45281;-75
2023/04/18 05:32:17;;;;;;;;;80.25;62.00;;;;;8.60;76.80;101672.91;5065026;28;45497;-75
2023/04/18 05:34:42;;;;;;;;;80.75;67.50;;;;;8.12;77.51;101606.50;5061460;28;45197;-73
2023/04/18 05:37:07;;;;;;;;;78.25;67.50;;;;;8.44;77.50;101664.38;5061182;28;45701;-75
2023/04/18 05:39:33;;;;;;;;;81.00;68.25;;;;;9.16;77.58;101774.13;5060747;28;47399;-74
2023/04/18 05:41:58;;;;;;;;;83.25;74.50;;;;;8.99;77.18;101761.22;5078926;28;45286;-74
2023/04/18 05:44:24;;;;;;;;;82.00;70.00;;;;;8.91;77.51;101734.41;5078431;27;45360;-78
2023/04/18 05:46:52;;;;;;;;;73.00;56.00;;;;;9.19;77.36;101773.91;5065477;27;46382;-75
2023/04/18 05:49:18;;;;;;;;;79.75;66.25;;;;;9.18;76.71;101752.78;5081130;27;46220;-76
2023/04/18 05:51:44;;;;;;;;;81.50;67.75;;;;;9.11;76.53;101713.44;5084196;27;45620;-76
2023/04/18 05:54:10;;;;;;;;;77.75;57.75;;;;;9.57;75.54;101784.41;5082226;27;45495;-75
2023/04/18 05:56:35;;;;;;;;;77.25;62.75;;;;;9.27;75.26;101717.66;5078139;27;45558;-74
2023/04/18 05:59:01;;;;;;;;;81.50;67.75;;;;;9.55;75.17;101772.19;5067178;28;47872;-75
2023/04/18 06:01:26;;;;;;;;;72.50;58.25;;;;;9.50;75.14;101761.06;5058264;28;45366;-75
2023/04/18 06:03:53;;;;;;;;;80.75;61.75;;;;;9.60;74.85;101791.28;5080505;28;45628;-72
2023/04/18 06:06:18;;;;;;;;;76.75;61.00;;;;;9.72;74.99;101787.75;5080361;27;45239;-75
2023/04/18 06:08:43;;;;;;;;;78.00;62.75;;;;;9.69;74.36;101761.44;5078655;28;45391;-72
2023/04/18 06:11:09;;;;;;;;;73.50;58.50;;;;;10.00;73.88;101783.88;5079143;28;45415;-74
2023/04/18 06:13:36;;;;;;;;;75.50;63.25;;;;;9.90;72.92;101749.19;5071826;28;45351;-73
2023/04/18 06:16:01;;;;;;;;;77.25;60.50;;;;;9.24;72.59;101599.31;5079099;28;45300;-75
2023/04/18 06:18:26;;;;;;;;;80.25;63.75;;;;;10.37;71.99;101779.31;5078935;27;45358;-73
2023/04/18 06:20:52;;;;;;;;;75.50;57.75;;;;;10.41;71.67;101780.81;5078840;27;45496;-77
2023/04/18 06:23:17;;;;;;;;;77.25;64.25;;;;;10.26;70.73;101755.38;5079311;27;45369;-75
2023/04/18 06:25:43;;;;;;;;;75.00;56.50;;;;;10.39;70.52;101758.78;5081070;27;45486;-72
2023/04/18 06:28:08;;;;;;;;;77.00;63.75;;;;;10.44;70.11;101737.19;5078772;28;45659;-73
2023/04/18 06:30:34;;;;;;;;;76.75;61.25;;;;;10.92;68.83;101781.22;5078662;27;45442;-76
2023/04/18 06:32:59;;;;;;;;;78.50;66.50;;;;;10.78;68.47;101740.69;5084461;27;45499;-76
2023/04/18 06:35:25;;;;;;;;;71.25;56.50;;;;;11.12;68.28;101781.44;5072242;28;45524;-75
2023/04/18 06:37:51;;;;;;;;;76.75;60.00;;;;;10.44;68.24;101642.31;5077841;27;46507;-75
2023/04/18 06:40:16;;;;;;;;;70.50;55.50;;;;;11.24;67.67;101764.50;5089941;27;45228;-77
2023/04/18 06:42:42;;;;;;;;;79.00;66.75;;;;;10.41;66.97;101631.94;5078981;27;45424;-75
2023/04/18 06:45:10;;;;;;;;;65.00;50.25;;;;;11.22;67.32;101782.41;5082113;27;45435;-75
2023/04/18 06:47:36;;;;;;;;;73.25;57.25;;;;;11.09;67.65;101761.25;5083451;27;46593;-76
2023/04/18 06:50:02;;;;;;;;;76.25;63.75;;;;;9.09;67.49;101475.78;5099316;27;45361;-77
2023/04/18 06:52:28;;;;;;;;;71.75;55.00;;;;;10.87;68.00;101754.13;5080216;27;45599;-75
2023/04/18 06:54:53;;;;;;;;;70.75;56.25;;;;;11.15;67.73;101786.50;5082387;27;45614;-75
2023/04/18 06:57:18;;;;;;;;;76.00;62.75;;;;;11.36;67.45;101794.59;5071562;27;46364;-78
2023/04/18 06:59:44;;;;;;;;;73.00;56.25;;;;;11.47;66.97;101779.47;5078584;27;45374;-73
2023/04/18 07:02:09;;;;;;;;;75.50;60.25;;;;;11.66;65.66;101773.47;5078423;27;45253;-76
2023/04/18 07:04:35;;;;;;;;;67.75;53.50;;;;;11.73;65.68;101785.31;5078780;27;45240;-74
2023/04/18 07:07:02;;;;;;;;;69.00;55.50;;;;;11.24;65.37;101668.69;5081421;27;47298;-74
2023/04/18 07:09:28;;;;;;;;;72.50;55.75;;;;;11.74;65.26;101778.16;5080314;27;45392;-73
2023/04/18 07:11:53;;;;;;;;;76.00;62.50;;;;;11.50;65.35;101741.94;5079308;27;45399;-73
2023/04/18 07:14:23;;;;;;;;;69.00;54.00;;;;;11.63;65.36;101781.72;5078081;27;45554;-74
2023/04/18 07:16:49;;;;;;;;;70.25;53.25;;;;;10.91;66.40;101666.94;5052691;28;47438;-74
2023/04/18 07:19:15;;;;;;;;;72.50;62.25;;;;;11.35;65.62;101723.69;5075541;27;46104;-74
2023/04/18 07:21:42;;;;;;;;;73.25;55.00;;;;;11.83;65.49;101782.78;5076210;27;45348;-74
2023/04/18 07:24:08;;;;;;;;;70.50;54.75;;;;;11.20;65.19;101673.38;5078862;27;45613;-76
2023/04/18 07:26:34;;;;;;;;;72.25;58.50;;;;;10.06;65.28;101462.81;5088692;27;45306;-75
2023/04/18 07:29:00;;;;;;;;;78.25;63.25;;;;;11.71;64.95;101741.13;5078911;27;45268;-76
2023/04/18 07:31:27;;;;;;;;;73.75;61.75;;;;;11.96;64.96;101755.94;5080308;27;45535;-77
2023/04/18 07:33:53;;;;;;;;;73.75;61.50;;;;;11.83;63.58;101645.09;5093873;27;45566;-79
2023/04/18 07:36:18;;;;;;;;;75.75;62.75;;;;;12.89;61.70;101761.28;5087091;27;46675;-79
2023/04/18 07:38:44;;;;;;;;;74.25;64.00;;;;;13.14;60.36;101719.94;5081096;27;45471;-75
2023/04/18 07:41:09;;;;;;;;;74.00;64.00;;;;;13.05;58.55;101636.19;5085608;27;45423;-74
2023/04/18 07:43:34;;;;;;;;;70.25;60.25;;;;;14.06;57.52;101737.34;5080306;28;45510;-78
2023/04/18 07:46:00;;;;;;;;;58.75;47.50;;;;;14.67;57.17;101758.34;5059107;27;46176;-77
2023/04/18 07:48:26;;;;;;;;;69.50;53.00;;;;;14.54;55.21;101763.19;5078669;27;45514;-74
2023/04/18 07:50:52;;;;;;;;;66.50;52.00;;;;;13.81;56.92;101695.13;5076406;28;45393;-75
2023/04/18 07:53:17;;;;;;;;;70.00;56.75;;;;;14.09;56.15;101769.13;5077118;27;45632;-75
2023/04/18 07:55:44;;;;;;;;;62.50;49.50;;;;;14.21;55.95;101748.41;5077465;27;45648;-76
2023/04/18 07:58:09;;;;;;;;;68.50;53.75;;;;;14.39;55.57;101769.94;5078278;28;45529;-76
2023/04/18 08:00:36;;;;;;;;;74.25;59.75;;;;;14.63;55.31;101745.41;5090953;27;45711;-73
2023/04/18 08:03:01;;;;;;;;;68.75;51.75;;;;;14.59;54.33;101750.19;5084575;27;45580;-75
2023/04/18 08:05:27;;;;;;;;;69.50;56.00;;;;;14.71;54.01;101692.81;5077901;27;46177;-76
2023/04/18 08:07:52;;;;;;;;;75.25;58.50;;;;;15.86;51.22;101719.03;5072518;27;45346;-79
2023/04/18 08:10:18;;;;;;;;;68.00;50.25;;;;;16.57;49.74;101743.88;5090284;27;45408;-75
2023/04/18 08:12:43;;;;;;;;;66.50;52.50;;;;;17.41;48.43;101744.91;5106366;27;45598;-78
2023/04/18 08:15:09;;;;;;;;;72.50;58.00;;;;;17.84;46.86;101725.88;5076420;28;45466;-76
2023/04/18 08:17:35;;;;;;;;;66.50;51.75;;;;;18.57;44.75;101719.56;5075576;27;45493;-74
2023/04/18 08:20:03;;;;;;;;;61.50;49.25;;;;;18.98;44.08;101744.53;5077748;28;45559;-77
2023/04/18 08:22:29;;;;;;;;;70.75;53.75;;;;;18.96;43.18;101716.09;5062571;27;45652;-76
2023/04/18 08:24:54;;;;;;;;;70.75;54.50;;;;;18.10;43.21;101606.44;5070518;27;46060;-76
2023/04/18 08:27:19;;;;;;;;;71.00;56.50;;;;;18.91;42.89;101735.47;5078065;27;45311;-75
2023/04/18 08:29:48;;;;;;;;;63.50;50.25;;;;;18.49;42.97;101614.56;5059633;28;47068;-74
2023/04/18 08:32:13;;;;;;;;;66.00;51.00;;;;;19.24;41.90;101711.06;5078211;27;45355;-75
2023/04/18 08:34:38;;;;;;;;;68.50;52.00;;;;;18.78;42.42;101644.41;5077872;28;45339;-77
2023/04/18 08:37:04;;;;;;;;;68.50;54.50;;;;;19.71;41.05;101733.38;5053712;27;46330;-77
2023/04/18 08:39:30;;;;;;;;;63.50;50.75;;;;;19.86;40.37;101678.63;5075770;27;45505;-75
2023/04/18 08:41:59;;;;;;;;;58.50;47.00;;;;;20.30;38.98;101728.16;5061087;27;45355;-76
2023/04/18 08:44:26;;;;;;;;;66.75;51.00;;;;;20.22;39.20;101666.13;5077743;27;47382;-77
2023/04/18 08:46:52;;;;;;;;;62.33;49.67;;;;;20.69;39.05;101727.09;5065327;28;45532;-76
2023/04/18 08:49:21;;;;;;;;;65.50;52.00;;;;;20.57;38.68;101702.38;5056703;28;45340;-76
2023/04/18 08:51:49;;;;;;;;;62.50;50.75;;;;;20.42;38.70;101716.91;5071819;27;45503;-78
2023/04/18 08:54:17;;;;;;;;;66.25;49.75;;;;;19.52;40.46;101666.38;5079931;27;45829;-74
2023/04/18 08:56:43;;;;;;;;;45.75;36.50;;;;;19.93;38.59;101649.88;5078593;28;46025;-77
2023/04/18 08:59:08;;;;;;;;;61.00;48.00;;;;;20.17;39.09;101717.13;5074695;28;45489;-76
2023/04/18 09:01:56;;;;;;;;;65.75;51.50;;;;;20.15;38.61;101699.44;5049807;28;45526;-74
2023/04/18 09:04:44;;;;;;;;;58.75;48.50;;;;;20.69;38.14;101708.19;5075175;27;46579;-73
2023/04/18 09:07:11;;;;;;;;;50.25;40.75;;;;;21.18;36.62;101710.25;5058378;28;45490;-75
2023/04/18 09:09:55;;;;;;;;;64.67;51.00;;;;;21.53;36.29;101698.59;5058099;28;45697;-74
2023/04/18 09:12:26;;;;;;;;;62.75;50.50;;;;;22.04;35.54;101706.63;5097947;27;45370;-74
2023/04/18 09:15:08;;;;;;;;;60.75;48.00;;;;;22.25;34.58;101683.22;5082617;27;47636;-77
2023/04/18 09:17:36;;;;;;;;;64.67;52.00;;;;;22.03;33.94;101623.66;5100691;27;45386;-76
2023/04/18 09:20:04;;;;;;;;;60.67;48.00;;;;;22.77;32.94;101604.88;5100497;27;45270;-74
2023/04/18 09:22:47;;;;;;;;;61.00;47.67;;;;;24.53;31.58;101697.78;5101169;27;45234;-77
2023/04/18 09:25:36;;;;;;;;;60.00;49.00;;;;;25.46;28.97;101690.94;5079657;27;46490;-74
2023/04/18 09:28:30;;;;;;;;;58.33;47.67;;;;;24.93;29.03;101644.09;5061947;28;46215;-75
2023/04/18 09:30:57;;;;;;;;;59.00;48.33;;;;;25.18;28.31;101538.06;5080176;27;45355;-75
2023/04/18 09:33:27;;;;;;;;;59.75;49.00;;;;;26.80;26.56;101659.50;5080940;28;45346;-76
2023/04/18 09:35:54;;;;;;;;;62.00;49.00;;;;;26.61;26.25;101565.09;5079806;28;45506;-77
2023/04/18 09:38:19;;;;;;;;;58.00;45.00;;;;;27.80;25.89;101658.94;5059421;28;45285;-75
2023/04/18 09:40:45;;;;;;;;;53.33;45.33;;;;;28.05;25.17;101637.69;5058630;28;45452;-76
2023/04/18 09:43:20;;;;;;;;;53.67;44.33;;;;;27.88;25.20;101618.44;5065029;28;45289;-75
2023/04/18 09:45:47;;;;;;;;;55.00;44.67;;;;;28.25;24.65;101609.13;5062235;28;47342;-73
2023/04/18 09:48:13;;;;;;;;;55.00;45.25;;;;;28.20;24.38;101661.78;5073208;27;45554;-75
2023/04/18 09:50:40;;;;;;;;;58.00;45.67;;;;;28.11;25.44;101647.66;5073148;27;45688;-77
2023/04/18 09:53:07;;;;;;;;;51.33;42.67;;;;;28.36;24.31;101654.78;5060335;28;45487;-76
2023/04/18 09:55:34;;;;;;;;;56.33;42.33;;;;;27.52;24.91;101555.78;5080640;27;46079;-76
2023/04/18 09:58:02;;;;;;;;;62.00;47.00;;;;;28.06;24.00;101639.34;5059606;28;45475;-75
2023/04/18 10:00:30;;;;;;;;;57.67;47.33;;;;;26.93;25.30;101612.94;5058220;28;45390;-75
2023/04/18 10:03:09;;;;;;;;;58.33;45.33;;;;;26.07;26.43;101641.22;5059113;28;45364;-76
2023/04/18 10:05:39;;;;;;;;;57.33;46.33;;;;;25.91;26.90;101624.59;5058668;28;46436;-77
2023/04/18 10:08:05;;;;;;;;;57.00;45.67;;;;;26.72;26.23;101648.91;5058658;28;45488;-76
2023/04/18 10:10:32;;;;;;;;;51.33;41.67;;;;;26.25;26.30;101648.59;5059284;28;45534;-75
2023/04/18 10:12:59;;;;;;;;;51.67;42.67;;;;;25.46;26.83;101556.69;5058462;28;45581;-75
2023/04/18 10:15:27;;;;;;;;;58.33;46.67;;;;;25.66;27.33;101622.72;5059799;28;46578;-78
2023/04/18 10:17:58;;;;;;;;;55.00;45.00;;;;;25.24;28.31;101637.06;5057785;28;45384;-76
2023/04/18 10:20:26;;;;;;;;;55.00;44.67;;;;;24.79;29.29;101632.44;5059075;28;45307;-77
2023/04/18 10:22:53;;;;;;;;;58.67;46.67;;;;;24.13;28.84;101631.78;5062759;28;45408;-75
2023/04/18 10:25:40;;;;;;;;;61.33;46.67;;;;;22.92;30.91;101628.34;5079289;28;46482;-78
2023/04/18 10:28:07;;;;;;;;;54.67;44.67;;;;;21.86;33.01;101636.66;5079769;28;45439;-75
2023/04/18 10:30:41;;;;;;;;;56.00;45.00;;;;;21.52;33.96;101631.16;5080003;28;45392;-77
2023/04/18 10:33:19;;;;;;;;;56.67;47.33;;;;;20.76;35.01;101625.31;5079872;28;45308;-76
2023/04/18 10:36:13;;;;;;;;;58.67;44.67;;;;;19.89;36.56;101622.41;5062871;28;46999;-77
2023/04/18 10:38:52;;;;;;;;;59.33;48.33;;;;;19.35;36.85;101570.44;5063063;28;45344;-75
2023/04/18 10:41:30;;;;;;;;;58.00;47.67;;;;;19.44;37.24;101618.75;5079753;28;45553;-77
2023/04/18 10:44:16;;;;;;;;;56.33;45.00;;;;;18.72;37.99;101612.81;5078672;27;45320;-74
2023/04/18 10:46:50;;;;;;;;;57.67;47.33;;;;;18.14;39.78;101607.78;5079081;28;46406;-76
2023/04/18 10:49:20;;;;;;;;;59.00;47.33;;;;;18.05;40.46;101606.97;5079162;28;45456;-75
2023/04/18 10:51:48;;;;;;;;;58.33;45.33;;;;;18.03;40.74;101594.72;5077887;28;45574;-74
2023/04/18 10:54:36;;;;;;;;;57.00;46.67;;;;;17.97;41.14;101598.06;5060859;27;45383;-75
2023/04/18 10:57:03;;;;;;;;;53.33;43.00;;;;;17.29;41.33;101499.81;5078600;28;46455;-75
2023/04/18 10:59:31;;;;;;;;;42.33;37.33;;;;;16.32;41.33;101409.28;5078083;28;45238;-75
2023/04/18 11:02:07;;;;;;;;;53.67;42.33;;;;;17.21;41.41;101573.22;5060519;28;45420;-74
2023/04/18 11:04:33;;;;;;;;;46.33;39.67;;;;;17.19;39.43;101561.78;5078694;28;45558;-76
2023/04/18 11:06:58;;;;;;;;;56.67;45.33;;;;;17.23;41.35;101571.22;5078078;28;46257;-75
2023/04/18 11:09:24;;;;;;;;;59.00;45.25;;;;;17.31;41.63;101595.41;5078210;28;45517;-76
2023/04/18 11:12:07;;;;;;;;;53.67;43.33;;;;;16.88;41.29;101587.63;5077965;28;45264;-75